createdAt,value
2022-08-14T00:01:54.734Z,18.47
2022-08-14T00:04:56.462Z,18.44
2022-08-14T00:07:58.010Z,17.95
2022-08-14T00:10:59.838Z,16.59
2022-08-14T00:14:02.309Z,15.99
2022-08-14T00:17:04.760Z,16.92
2022-08-14T00:20:08.762Z,17.73
2022-08-14T00:23:16.472Z,17.60
2022-08-14T00:26:21.784Z,18.11
2022-08-14T00:29:25.467Z,18.30
2022-08-14T00:32:55.934Z,18.39
2022-08-14T00:36:47.809Z,18.03
2022-08-14T00:39:18.056Z,18.12
2022-08-14T00:42:55.784Z,18.02
2022-08-14T00:45:43.513Z,18.10
2022-08-14T00:48:54.381Z,17.41
2022-08-14T00:52:00.350Z,16.94
2022-08-14T00:55:02.689Z,16.82
2022-08-14T00:58:32.671Z,16.89
2022-08-14T01:01:35.916Z,17.62
2022-08-14T01:04:53.716Z,17.86
2022-08-14T01:07:59.627Z,17.94
2022-08-14T01:11:02.025Z,17.75
2022-08-14T01:14:25.993Z,17.80
2022-08-14T01:17:50.459Z,17.99
2022-08-14T01:21:03.657Z,17.56
2022-08-14T01:24:09.804Z,16.90
2022-08-14T01:27:22.245Z,17.12
2022-08-14T01:30:26.342Z,17.69
2022-08-14T01:33:29.915Z,17.46
2022-08-14T01:36:36.547Z,17.30
2022-08-14T01:39:38.974Z,17.67
2022-08-14T01:42:44.243Z,17.83
2022-08-14T01:45:57.809Z,17.49
2022-08-14T01:49:10.302Z,16.95
2022-08-14T01:52:23.289Z,15.97
2022-08-14T01:55:36.716Z,15.80
2022-08-14T01:58:57.564Z,16.47
2022-08-14T02:02:03.514Z,17.30
2022-08-14T02:05:06.176Z,17.52
2022-08-14T02:08:10.359Z,16.98
2022-08-14T02:11:24.529Z,16.62
2022-08-14T02:14:31.715Z,16.45
2022-08-14T02:17:33.962Z,17.05
2022-08-14T02:20:35.801Z,16.55
2022-08-14T02:23:37.412Z,16.26
2022-08-14T02:28:19.078Z,16.99
2022-08-14T02:30:05.421Z,17.37
2022-08-14T02:33:10.674Z,17.45
2022-08-14T02:37:02.744Z,16.87
2022-08-14T02:39:41.149Z,16.22
2022-08-14T02:42:42.719Z,16.85
2022-08-14T02:45:56.945Z,16.54
2022-08-14T02:49:01.933Z,15.81
2022-08-14T02:52:55.844Z,15.88
2022-08-14T02:55:30.922Z,16.72
2022-08-14T02:58:37.329Z,17.16
2022-08-14T03:01:50.088Z,16.91
2022-08-14T03:04:54.334Z,16.03
2022-08-14T03:08:08.366Z,15.42
2022-08-14T03:11:11.763Z,16.58
2022-08-14T03:14:15.499Z,17.02
2022-08-14T03:17:19.450Z,17.02
2022-08-14T03:20:23.901Z,15.79
2022-08-14T03:23:25.661Z,16.29
2022-08-14T03:26:30.225Z,16.57
2022-08-14T03:29:32.818Z,16.13
2022-08-14T03:32:34.358Z,16.33
2022-08-14T03:35:40.370Z,16.46
2022-08-14T03:39:21.636Z,16.41
2022-08-14T03:42:20.085Z,16.31
2022-08-14T03:45:34.013Z,16.60
2022-08-14T03:48:40.540Z,16.11
2022-08-14T03:51:42.109Z,16.01
2022-08-14T03:54:46.613Z,16.63
2022-08-14T03:57:55.742Z,16.77
2022-08-14T04:00:59.783Z,16.88
2022-08-14T04:04:06.040Z,16.88
2022-08-14T04:07:10.857Z,16.85
2022-08-14T04:10:12.816Z,16.48
2022-08-14T04:13:19.171Z,16.69
2022-08-14T04:16:25.457Z,16.77
2022-08-14T04:19:36.503Z,16.61
2022-08-14T04:22:43.700Z,16.66
2022-08-14T04:25:46.074Z,16.29
2022-08-14T04:29:07.408Z,16.07
2022-08-14T04:33:01.131Z,15.29
2022-08-14T04:35:55.285Z,16.25
2022-08-14T04:39:17.627Z,16.72
2022-08-14T04:42:37.977Z,16.74
2022-08-14T04:45:51.188Z,16.58
2022-08-14T04:48:59.923Z,15.21
2022-08-14T04:52:18.959Z,14.42
2022-08-14T04:55:20.635Z,13.97
2022-08-14T04:58:32.598Z,13.33
2022-08-14T05:01:39.880Z,13.96
2022-08-14T05:04:45.576Z,14.07
2022-08-14T05:08:12.101Z,14.33
2022-08-14T05:11:36.715Z,14.55
2022-08-14T05:14:45.794Z,13.70
2022-08-14T05:18:03.787Z,13.66
2022-08-14T05:21:57.878Z,13.69
2022-08-14T05:24:38.610Z,13.95
2022-08-14T05:27:40.159Z,13.86
2022-08-14T05:30:43.584Z,13.98
2022-08-14T05:33:56.478Z,14.19
2022-08-14T05:37:02.066Z,14.49
2022-08-14T05:40:05.085Z,14.47
2022-08-14T05:43:08.597Z,14.41
2022-08-14T05:46:15.751Z,14.41
2022-08-14T05:49:17.755Z,14.49
2022-08-14T05:52:38.423Z,14.60
2022-08-14T05:55:44.235Z,14.64
2022-08-14T05:58:46.026Z,14.55
2022-08-14T06:01:47.485Z,14.69
2022-08-14T06:04:52.617Z,14.85
2022-08-14T06:07:54.327Z,14.95
2022-08-14T06:11:03.508Z,15.09
2022-08-14T06:14:12.328Z,15.23
2022-08-14T06:17:25.811Z,15.38
2022-08-14T06:20:30.058Z,15.61
2022-08-14T06:23:32.045Z,16.32
2022-08-14T06:26:33.993Z,16.62
2022-08-14T06:29:36.938Z,16.59
2022-08-14T06:32:39.557Z,16.85
2022-08-14T06:35:44.591Z,17.35
2022-08-14T06:38:50.833Z,17.64
2022-08-14T06:41:59.308Z,17.45
2022-08-14T06:45:01.425Z,17.43
2022-08-14T06:48:12.657Z,17.53
2022-08-14T06:51:14.444Z,17.85
2022-08-14T06:54:15.918Z,17.97
2022-08-14T06:57:17.962Z,18.07
2022-08-14T07:00:22.459Z,18.28
2022-08-14T07:03:48.526Z,18.42
2022-08-14T07:06:50.558Z,18.40
2022-08-14T07:09:52.877Z,18.59
2022-08-14T07:13:03.553Z,18.77
2022-08-14T07:16:06.497Z,18.94
2022-08-14T07:19:11.446Z,19.12
2022-08-14T07:22:17.744Z,19.30
2022-08-14T07:25:22.263Z,19.57
2022-08-14T07:28:43.420Z,19.61
2022-08-14T07:31:46.425Z,19.87
2022-08-14T07:34:48.897Z,20.11
2022-08-14T07:37:52.663Z,20.15
2022-08-14T07:40:54.437Z,20.36
2022-08-14T07:43:57.754Z,20.58
2022-08-14T07:47:00.604Z,20.72
2022-08-14T07:50:07.939Z,20.72
2022-08-14T07:53:14.201Z,20.79
2022-08-14T07:56:22.121Z,20.89
2022-08-14T07:59:43.747Z,21.03
2022-08-14T08:02:50.570Z,21.01
2022-08-14T08:05:57.947Z,21.30
2022-08-14T08:09:03.569Z,21.38
2022-08-14T08:12:14.205Z,21.26
2022-08-14T08:15:16.953Z,21.35
2022-08-14T08:18:20.419Z,21.70
2022-08-14T08:21:33.165Z,21.95
2022-08-14T08:24:36.977Z,22.00
2022-08-14T08:27:38.693Z,22.18
2022-08-14T08:31:00.559Z,22.56
2022-08-14T08:34:04.517Z,22.81
2022-08-14T08:37:07.696Z,22.78
2022-08-14T08:40:11.438Z,22.89
2022-08-14T08:43:34.068Z,23.19
2022-08-14T08:46:36.502Z,23.17
2022-08-14T08:49:59.307Z,23.16
2022-08-14T08:53:04.872Z,23.47
2022-08-14T08:56:06.806Z,23.80
2022-08-14T08:59:30.738Z,23.91
2022-08-14T09:02:33.396Z,24.23
2022-08-14T09:05:37.514Z,24.51
2022-08-14T09:08:39.133Z,24.59
2022-08-14T09:11:43.347Z,24.49
2022-08-14T09:14:48.853Z,24.70
2022-08-14T09:17:51.857Z,24.83
2022-08-14T09:20:58.551Z,24.81
2022-08-14T09:24:29.133Z,24.81
2022-08-14T09:27:23.316Z,24.84
2022-08-14T09:30:32.621Z,25.25
2022-08-14T09:33:56.047Z,25.41
2022-08-14T09:37:19.305Z,25.31
2022-08-14T09:40:47.695Z,25.27
2022-08-14T09:43:58.583Z,25.42
2022-08-14T09:47:00.134Z,25.50
2022-08-14T09:50:01.912Z,25.76
2022-08-14T09:53:05.797Z,25.94
2022-08-14T09:56:30.295Z,26.00
2022-08-14T09:59:46.336Z,26.10
2022-08-14T10:02:54.182Z,26.08
2022-08-14T10:06:09.030Z,26.26
2022-08-14T10:09:16.624Z,26.64
2022-08-14T10:12:29.011Z,26.92
2022-08-14T10:15:32.966Z,26.88
2022-08-14T10:18:34.447Z,27.11
2022-08-14T10:21:38.716Z,27.03
2022-08-14T10:24:44.805Z,27.09
2022-08-14T10:27:57.882Z,27.07
2022-08-14T10:30:59.432Z,27.39
2022-08-14T10:34:02.893Z,27.01
2022-08-14T10:37:08.712Z,27.26
2022-08-14T10:40:44.335Z,27.19
2022-08-14T10:44:09.071Z,27.48
2022-08-14T10:47:41.686Z,27.82
2022-08-14T10:50:49.269Z,27.84
2022-08-14T10:53:56.953Z,27.91
2022-08-14T10:57:11.379Z,28.30
2022-08-14T11:00:20.797Z,28.07
2022-08-14T11:03:56.571Z,28.40
2022-08-14T11:06:59.166Z,28.68
2022-08-14T11:10:04.761Z,28.65
2022-08-14T11:13:07.018Z,28.70
2022-08-14T11:16:09.454Z,29.04
2022-08-14T11:19:12.998Z,29.12
2022-08-14T11:22:56.267Z,28.99
2022-08-14T11:25:53.215Z,29.30
2022-08-14T11:28:57.374Z,29.13
2022-08-14T11:32:02.230Z,29.11
2022-08-14T11:35:04.087Z,29.26
2022-08-14T11:38:08.719Z,29.30
2022-08-14T11:41:11.361Z,29.59
2022-08-14T11:44:13.233Z,29.28
2022-08-14T11:47:19.635Z,29.46
2022-08-14T11:50:36.126Z,29.79
2022-08-14T11:53:42.023Z,29.79
2022-08-14T11:56:45.620Z,29.66
2022-08-14T11:59:47.846Z,29.49
2022-08-14T12:03:02.965Z,29.59
2022-08-14T12:06:29.207Z,29.54
2022-08-14T12:09:35.563Z,29.64
2022-08-14T12:12:38.022Z,30.04
2022-08-14T12:15:45.563Z,30.55
2022-08-14T12:18:49.628Z,30.64
2022-08-14T12:21:51.775Z,30.00
2022-08-14T12:24:55.206Z,29.83
2022-08-14T12:28:01.735Z,29.55
2022-08-14T12:31:20.759Z,29.74
2022-08-14T12:34:22.838Z,30.02
2022-08-14T12:37:31.051Z,30.14
2022-08-14T12:40:32.702Z,30.26
2022-08-14T12:43:56.362Z,29.94
2022-08-14T12:47:03.743Z,29.99
2022-08-14T12:50:11.878Z,29.89
2022-08-14T12:53:14.496Z,29.83
2022-08-14T12:56:22.088Z,29.94
2022-08-14T12:59:37.330Z,30.32
2022-08-14T13:02:50.896Z,29.98
2022-08-14T13:05:57.775Z,30.04
2022-08-14T13:09:00.292Z,30.05
2022-08-14T13:12:34.833Z,29.60
2022-08-14T13:15:27.125Z,29.71
2022-08-14T13:37:41.494Z,29.98
2022-08-14T13:40:43.278Z,30.02
2022-08-14T13:43:59.297Z,30.10
2022-08-14T13:47:06.520Z,30.00
2022-08-14T13:50:13.930Z,29.62
2022-08-14T13:53:22.966Z,29.45
2022-08-14T13:56:36.368Z,29.59
2022-08-14T13:59:44.242Z,29.75
2022-08-14T14:02:47.652Z,29.77
2022-08-14T14:05:55.005Z,29.55
2022-08-14T14:08:58.995Z,29.54
2022-08-14T14:12:01.048Z,29.80
2022-08-14T14:15:11.122Z,29.92
2022-08-14T14:18:29.947Z,29.88
2022-08-14T14:21:36.195Z,29.80
2022-08-14T14:24:40.074Z,29.98
2022-08-14T14:27:48.590Z,29.86
2022-08-14T14:30:57.293Z,29.70
2022-08-14T14:34:07.670Z,29.82
2022-08-14T14:37:22.048Z,29.83
2022-08-14T14:40:53.979Z,29.90
2022-08-14T14:43:51.684Z,29.95
2022-08-14T14:46:54.146Z,29.85
2022-08-14T14:49:56.735Z,29.73
2022-08-14T14:53:12.226Z,29.81
2022-08-14T14:56:47.530Z,29.65
2022-08-14T14:59:37.369Z,29.71
2022-08-14T15:02:42.118Z,29.79
2022-08-14T15:05:44.241Z,29.84
2022-08-14T15:08:55.979Z,29.83
2022-08-14T15:11:58.644Z,29.80
2022-08-14T15:15:08.608Z,29.81
2022-08-14T15:18:35.867Z,29.77
2022-08-14T15:21:32.322Z,29.85
2022-08-14T15:24:34.474Z,30.05
2022-08-14T15:27:37.800Z,30.51
2022-08-14T15:30:50.918Z,30.80
2022-08-14T15:34:40.936Z,30.51
2022-08-14T15:37:35.124Z,30.30
2022-08-14T15:40:43.671Z,30.14
2022-08-14T15:43:53.343Z,30.24
2022-08-14T15:46:59.625Z,30.39
2022-08-14T15:50:05.047Z,30.49
2022-08-14T15:53:09.021Z,30.67
2022-08-14T15:56:42.330Z,30.85
2022-08-14T15:59:57.203Z,30.71
2022-08-14T16:03:00.498Z,30.43
2022-08-14T16:06:15.233Z,30.54
2022-08-14T16:09:18.851Z,30.82
2022-08-14T16:12:41.170Z,30.80
2022-08-14T16:15:53.233Z,30.37
2022-08-14T16:18:58.029Z,30.37
2022-08-14T16:22:59.240Z,30.18
2022-08-14T16:25:35.487Z,30.11
2022-08-14T16:28:37.643Z,30.30
2022-08-14T16:31:43.105Z,30.28
2022-08-14T16:34:49.139Z,30.01
2022-08-14T16:37:56.395Z,29.95
2022-08-14T16:41:18.066Z,29.92
2022-08-14T16:44:32.067Z,29.62
2022-08-14T16:47:36.391Z,29.60
2022-08-14T16:50:40.520Z,29.47
2022-08-14T16:53:47.209Z,29.25
2022-08-14T16:56:48.680Z,28.92
2022-08-14T16:59:58.963Z,28.84
2022-08-14T17:03:08.646Z,28.51
2022-08-14T17:06:30.898Z,27.98
2022-08-14T17:09:43.423Z,27.99
2022-08-14T17:12:45.579Z,27.99
2022-08-14T17:16:24.783Z,27.36
2022-08-14T17:19:40.027Z,27.38
2022-08-14T17:22:54.438Z,27.44
2022-08-14T17:25:56.184Z,27.06
2022-08-14T17:29:06.964Z,26.87
2022-08-14T17:32:29.214Z,26.63
2022-08-14T17:35:58.694Z,26.81
2022-08-14T17:39:07.351Z,26.66
2022-08-14T17:42:13.459Z,26.22
2022-08-14T17:45:16.394Z,26.06
2022-08-14T17:49:15.821Z,25.86
2022-08-14T17:52:07.375Z,25.77
2022-08-14T17:56:01.303Z,25.85
2022-08-14T17:58:41.715Z,25.95
2022-08-14T18:01:45.593Z,25.88
2022-08-14T18:04:51.108Z,25.80
2022-08-14T18:08:00.292Z,25.58
2022-08-14T18:11:17.724Z,24.80
2022-08-14T18:14:32.073Z,24.60
2022-08-14T18:17:36.641Z,24.28
2022-08-14T18:21:42.983Z,24.54
2022-08-14T18:24:00.410Z,24.82
2022-08-14T18:27:08.700Z,24.73
2022-08-14T18:30:32.121Z,24.71
2022-08-14T18:33:35.042Z,24.79
2022-08-14T18:36:56.733Z,25.03
2022-08-14T18:40:18.139Z,25.09
2022-08-14T18:43:43.304Z,24.90
2022-08-14T18:47:14.917Z,24.96
2022-08-14T18:50:26.892Z,25.08
2022-08-14T18:53:52.156Z,25.09
2022-08-14T18:56:59.264Z,25.13
2022-08-14T19:00:33.469Z,25.02
2022-08-14T19:03:36.391Z,24.99
2022-08-14T19:06:48.974Z,24.95
2022-08-14T19:10:00.756Z,24.89
2022-08-14T19:13:05.339Z,24.83
2022-08-14T19:16:26.178Z,24.73
2022-08-14T19:19:38.401Z,24.67
2022-08-14T19:22:41.893Z,24.52
2022-08-14T19:25:52.063Z,24.44
2022-08-14T19:28:53.799Z,24.24
2022-08-14T19:32:05.347Z,24.25
2022-08-14T19:38:46.682Z,24.00
2022-08-14T19:41:58.285Z,23.91
2022-08-14T19:45:01.062Z,23.86
2022-08-14T19:48:04.739Z,23.72
2022-08-14T19:51:08.038Z,23.66
2022-08-14T19:54:13.537Z,23.64
2022-08-14T19:57:29.108Z,23.56
2022-08-14T20:00:31.195Z,23.48
2022-08-14T20:04:00.341Z,23.44
2022-08-14T20:07:06.357Z,23.40
2022-08-14T20:11:07.974Z,23.30
2022-08-14T20:13:47.288Z,23.29
2022-08-14T20:16:55.392Z,23.02
2022-08-14T20:19:57.612Z,22.99
2022-08-14T20:23:11.309Z,23.07
2022-08-14T20:26:31.381Z,23.05
2022-08-14T20:29:38.067Z,22.92
2022-08-14T20:32:53.522Z,22.84
2022-08-14T20:35:55.552Z,22.93
2022-08-14T20:38:58.368Z,22.89
2022-08-14T20:42:29.130Z,22.78
2022-08-14T20:45:34.467Z,22.73
2022-08-14T20:48:53.016Z,22.61
2022-08-14T20:52:00.073Z,22.58
2022-08-14T20:55:21.803Z,22.42
2022-08-14T20:58:50.788Z,22.51
2022-08-14T21:01:59.527Z,22.60
2022-08-14T21:05:04.479Z,22.65
2022-08-14T21:08:22.536Z,22.74
2022-08-14T21:11:28.447Z,22.57
2022-08-14T21:14:30.001Z,22.64
2022-08-14T21:17:32.176Z,22.69
2022-08-14T21:20:40.330Z,22.65
2022-08-14T21:23:55.311Z,22.59
2022-08-14T21:27:04.201Z,22.64
2022-08-14T21:30:11.036Z,22.61
2022-08-14T21:33:12.756Z,22.61
2022-08-14T21:36:21.997Z,22.62
2022-08-14T21:39:24.406Z,22.62
2022-08-14T21:42:28.027Z,22.64
2022-08-14T21:45:31.730Z,22.67
2022-08-14T21:48:37.337Z,22.73
2022-08-14T21:51:54.873Z,22.62
2022-08-14T21:55:00.280Z,22.56
2022-08-14T21:58:51.803Z,22.51
2022-08-14T22:01:23.840Z,22.53
2022-08-14T22:04:31.926Z,22.42
2022-08-14T22:07:38.984Z,22.44
2022-08-14T22:10:46.389Z,22.47
2022-08-14T22:13:48.987Z,22.35
2022-08-14T22:17:01.699Z,22.33
2022-08-14T22:20:16.367Z,22.23
2022-08-14T22:23:19.362Z,22.24
2022-08-14T22:26:22.107Z,22.27
2022-08-14T22:29:23.961Z,22.30
2022-08-14T22:32:56.047Z,22.29
2022-08-14T22:35:48.184Z,22.29
2022-08-14T22:38:58.068Z,22.22
2022-08-14T22:42:01.612Z,22.18
2022-08-14T22:45:22.219Z,22.16
2022-08-14T22:48:23.734Z,22.20
2022-08-14T22:51:26.142Z,22.20
2022-08-14T22:54:53.065Z,22.10
2022-08-14T22:57:53.305Z,21.94
2022-08-14T23:00:55.333Z,21.92
2022-08-14T23:03:56.918Z,21.90
2022-08-14T23:07:02.993Z,21.97
2022-08-14T23:10:33.035Z,21.93
2022-08-14T23:13:30.727Z,21.96
2022-08-14T23:16:33.991Z,21.96
2022-08-14T23:19:35.500Z,21.83
2022-08-14T23:22:37.033Z,21.88
2022-08-14T23:25:59.411Z,21.90
2022-08-14T23:29:03.552Z,21.93
2022-08-14T23:32:05.959Z,21.96
2022-08-14T23:35:17.583Z,21.94
2022-08-14T23:38:30.282Z,21.96
2022-08-14T23:41:47.081Z,21.88
2022-08-14T23:44:55.556Z,21.66
2022-08-14T23:47:59.196Z,21.42
2022-08-14T23:51:02.469Z,21.36
2022-08-14T23:54:04.662Z,21.59
2022-08-14T23:57:06.132Z,21.43
